Tuttle, Oklahoma
Current Conditions -  °F | °C
As of 2:35 AM on Tuesday 21 Oct 2014 (Local Time) from KRCE Reporting Station
NA  
Wind Chill: 63°   Ceiling: NA
Heat Index: 63°   Visibility: NA
Dew Point: 61°   Wind: 8mph
Humidity: 94%   Direction: 190°S
Pressure: 30.07"   Gusts: NA
Location:  35.29°N, 97.81°W
Report Text: KRCE 210735Z AUTO 19007KT 17/16 A3007 RMK AO2
Loading
Personal Weather Stations






























Interactive Weather Map
Tropical Storm Tracking
New forecast layout! Learn more

10-Day Weather Forecast

Advertisements
Track Severe Weather on mobile